createdAt,value
2022-10-17T00:00:58.472Z,17.34
2022-10-17T00:03:34.959Z,17.33
2022-10-17T00:06:13.684Z,17.30
2022-10-17T00:08:42.823Z,17.31
2022-10-17T00:11:21.302Z,17.28
2022-10-17T00:13:51.672Z,17.21
2022-10-17T00:16:32.915Z,17.18
2022-10-17T00:19:00.405Z,17.16
2022-10-17T00:21:27.596Z,17.13
2022-10-17T00:23:54.871Z,17.09
2022-10-17T00:26:22.693Z,17.09
2022-10-17T00:28:52.357Z,17.05
2022-10-17T00:31:21.080Z,17.02
2022-10-17T00:33:48.114Z,16.99
2022-10-17T00:36:26.654Z,17.00
2022-10-17T00:38:58.769Z,17.02
2022-10-17T00:41:31.895Z,17.01
2022-10-17T00:44:04.127Z,17.00
2022-10-17T00:46:39.743Z,16.97
2022-10-17T00:49:12.694Z,16.95
2022-10-17T00:52:13.660Z,16.96
2022-10-17T00:54:48.182Z,16.93
2022-10-17T00:57:17.712Z,16.89
2022-10-17T00:59:53.048Z,16.88
2022-10-17T01:02:22.328Z,16.86
2022-10-17T01:04:55.040Z,16.84
2022-10-17T01:07:22.930Z,16.84
2022-10-17T01:09:50.481Z,16.82
2022-10-17T01:12:32.907Z,16.80
2022-10-17T01:15:36.982Z,16.76
2022-10-17T01:18:26.864Z,16.69
2022-10-17T01:21:40.257Z,16.62
2022-10-17T01:24:41.352Z,16.57
2022-10-17T01:27:40.678Z,16.58
2022-10-17T01:30:27.193Z,16.56
2022-10-17T01:33:10.726Z,16.52
2022-10-17T01:35:57.938Z,16.49
2022-10-17T01:38:39.192Z,16.48
2022-10-17T01:42:02.397Z,16.47
2022-10-17T01:44:47.960Z,16.48
2022-10-17T01:47:22.066Z,16.49
2022-10-17T01:49:53.566Z,16.51
2022-10-17T01:52:28.573Z,16.53
2022-10-17T01:55:06.174Z,16.54
2022-10-17T01:57:43.865Z,16.55
2022-10-17T02:00:18.498Z,16.53
2022-10-17T02:02:49.939Z,16.49
2022-10-17T02:05:24.968Z,16.48
2022-10-17T02:07:52.117Z,16.46
2022-10-17T02:10:37.275Z,16.37
2022-10-17T02:13:09.917Z,16.30
2022-10-17T02:16:15.974Z,16.28
2022-10-17T02:18:52.094Z,16.24
2022-10-17T02:21:54.002Z,16.23
2022-10-17T02:24:37.499Z,16.19
2022-10-17T02:27:13.991Z,16.17
2022-10-17T02:29:54.253Z,16.19
2022-10-17T02:32:34.403Z,16.18
2022-10-17T02:35:08.705Z,16.15
2022-10-17T02:37:37.725Z,16.12
2022-10-17T02:40:08.884Z,16.09
2022-10-17T02:42:36.692Z,16.08
2022-10-17T02:45:05.836Z,16.08
2022-10-17T02:48:05.590Z,16.06
2022-10-17T02:51:05.454Z,16.07
2022-10-17T02:53:49.153Z,16.09
2022-10-17T02:56:20.412Z,16.09
2022-10-17T02:58:57.213Z,16.08
2022-10-17T03:01:26.217Z,16.06
2022-10-17T03:04:09.305Z,16.01
2022-10-17T03:06:36.831Z,15.96
2022-10-17T03:09:04.333Z,15.92
2022-10-17T03:11:31.472Z,15.88
2022-10-17T03:13:58.421Z,15.85
2022-10-17T03:16:25.652Z,15.83
2022-10-17T03:18:52.744Z,15.85
2022-10-17T03:21:20.173Z,15.83
2022-10-17T03:23:47.357Z,15.80
2022-10-17T03:26:14.339Z,15.78
2022-10-17T03:28:41.298Z,15.71
2022-10-17T03:31:16.596Z,15.68
2022-10-17T03:33:43.678Z,15.68
2022-10-17T03:36:15.304Z,15.68
2022-10-17T03:38:43.535Z,15.67
2022-10-17T03:41:11.250Z,15.67
2022-10-17T03:43:39.756Z,15.63
2022-10-17T03:46:07.855Z,15.59
2022-10-17T03:48:34.919Z,15.59
2022-10-17T03:51:06.877Z,15.58
2022-10-17T03:53:34.416Z,15.58
2022-10-17T03:56:17.208Z,15.56
2022-10-17T03:58:45.316Z,15.56
2022-10-17T04:01:16.038Z,15.57
2022-10-17T04:03:44.378Z,15.55
2022-10-17T04:06:13.110Z,15.54
2022-10-17T04:08:42.640Z,15.52
2022-10-17T04:11:14.970Z,15.46
2022-10-17T04:13:41.912Z,15.43
2022-10-17T04:16:14.904Z,15.41
2022-10-17T04:18:43.479Z,15.43
2022-10-17T04:21:12.351Z,15.45
2022-10-17T04:23:39.600Z,15.44
2022-10-17T04:26:07.406Z,15.38
2022-10-17T04:28:34.592Z,15.37
2022-10-17T04:31:08.012Z,15.35
2022-10-17T04:33:35.108Z,15.30
2022-10-17T04:36:11.258Z,15.25
2022-10-17T04:38:39.150Z,15.21
2022-10-17T04:41:11.247Z,15.23
2022-10-17T04:43:39.752Z,15.23
2022-10-17T04:46:11.904Z,15.23
2022-10-17T04:48:40.350Z,15.26
2022-10-17T04:51:14.834Z,15.28
2022-10-17T04:53:43.838Z,15.30
2022-10-17T04:56:21.346Z,15.30
2022-10-17T04:58:48.823Z,15.31
2022-10-17T05:01:22.641Z,15.27
2022-10-17T05:03:50.619Z,15.23
2022-10-17T05:06:28.317Z,15.22
2022-10-17T05:08:55.773Z,15.22
2022-10-17T05:11:29.186Z,15.22
2022-10-17T05:14:02.776Z,15.19
2022-10-17T05:16:30.912Z,15.16
2022-10-17T05:18:59.957Z,15.15
2022-10-17T05:21:30.153Z,15.12
2022-10-17T05:23:58.029Z,15.08
2022-10-17T05:26:26.167Z,15.00
2022-10-17T05:28:54.754Z,14.94
2022-10-17T05:31:22.032Z,14.90
2022-10-17T05:33:49.057Z,14.85
2022-10-17T05:36:15.998Z,14.81
2022-10-17T05:38:42.764Z,14.79
2022-10-17T05:41:10.899Z,14.77
2022-10-17T05:43:37.847Z,14.76
2022-10-17T05:46:08.101Z,14.73
2022-10-17T05:48:35.337Z,14.71
2022-10-17T05:51:07.950Z,14.71
2022-10-17T05:53:41.107Z,14.69
2022-10-17T05:56:11.347Z,14.70
2022-10-17T05:58:50.334Z,14.71
2022-10-17T06:01:19.266Z,14.76
2022-10-17T06:03:46.093Z,14.78
2022-10-17T06:06:15.359Z,14.81
2022-10-17T06:08:43.119Z,14.82
2022-10-17T06:11:11.226Z,14.81
2022-10-17T06:13:39.609Z,14.81
2022-10-17T06:16:07.103Z,14.80
2022-10-17T06:18:34.466Z,14.83
2022-10-17T06:21:11.920Z,14.84
2022-10-17T06:23:39.300Z,14.86
2022-10-17T06:26:07.734Z,14.92
2022-10-17T06:28:36.028Z,14.97
2022-10-17T06:31:09.346Z,15.02
2022-10-17T06:33:37.456Z,15.03
2022-10-17T06:36:06.662Z,15.07
2022-10-17T06:38:36.748Z,15.09
2022-10-17T06:41:13.334Z,15.10
2022-10-17T06:43:43.459Z,15.12
2022-10-17T06:46:10.456Z,15.12
2022-10-17T06:48:37.380Z,15.12
2022-10-17T06:51:06.942Z,15.14
2022-10-17T06:53:35.039Z,15.15
2022-10-17T06:56:04.380Z,15.16
2022-10-17T06:58:34.577Z,15.21
2022-10-17T07:03:37.172Z,15.28
2022-10-17T07:06:05.107Z,15.33
2022-10-17T07:08:32.055Z,15.37
2022-10-17T07:11:08.303Z,15.38
2022-10-17T07:13:38.952Z,15.42
2022-10-17T07:16:07.187Z,15.46
2022-10-17T07:18:34.129Z,15.48
2022-10-17T07:21:01.900Z,15.51
2022-10-17T07:23:28.684Z,15.53
2022-10-17T07:26:08.600Z,15.54
2022-10-17T07:28:38.807Z,15.57
2022-10-17T07:31:13.009Z,15.61
2022-10-17T07:33:40.143Z,15.62
2022-10-17T07:36:07.841Z,15.67
2022-10-17T07:38:36.359Z,15.70
2022-10-17T07:41:08.192Z,15.72
2022-10-17T07:43:39.173Z,15.74
2022-10-17T07:46:06.537Z,15.78
2022-10-17T07:48:33.347Z,15.82
2022-10-17T07:51:07.157Z,15.87
2022-10-17T07:53:42.766Z,15.90
2022-10-17T07:56:12.425Z,15.93
2022-10-17T07:58:40.072Z,15.99
2022-10-17T08:01:16.248Z,16.04
2022-10-17T08:03:48.819Z,16.08
2022-10-17T08:06:16.595Z,16.15
2022-10-17T08:08:44.449Z,16.15
2022-10-17T08:11:14.300Z,16.18
2022-10-17T08:13:42.535Z,16.20
2022-10-17T08:16:13.661Z,16.25
2022-10-17T08:18:43.092Z,16.33
2022-10-17T08:21:11.688Z,16.42
2022-10-17T08:23:38.698Z,16.46
2022-10-17T08:26:10.703Z,16.53
2022-10-17T08:28:40.827Z,16.61
2022-10-17T08:31:12.112Z,16.66
2022-10-17T08:33:39.763Z,16.71
2022-10-17T08:36:08.880Z,16.75
2022-10-17T08:38:39.403Z,16.82
2022-10-17T08:41:41.003Z,16.88
2022-10-17T08:44:22.750Z,16.94
2022-10-17T08:46:58.915Z,17.00
2022-10-17T08:49:56.087Z,17.05
2022-10-17T08:53:03.128Z,17.12
2022-10-17T08:55:41.283Z,17.18
2022-10-17T08:58:20.221Z,17.22
2022-10-17T09:01:13.026Z,17.27
2022-10-17T09:04:17.650Z,17.31
2022-10-17T09:07:01.314Z,17.37
2022-10-17T09:09:45.137Z,17.43
2022-10-17T09:12:19.207Z,17.49
2022-10-17T09:15:23.696Z,17.56
2022-10-17T09:18:22.050Z,17.64
2022-10-17T09:20:58.151Z,17.69
2022-10-17T09:23:49.127Z,17.72
2022-10-17T09:26:16.358Z,17.77
2022-10-17T09:28:53.986Z,17.80
2022-10-17T09:31:27.110Z,17.81
2022-10-17T09:34:00.030Z,17.84
2022-10-17T09:36:34.455Z,17.89
2022-10-17T09:39:16.798Z,17.93
2022-10-17T09:41:51.115Z,17.95
2022-10-17T09:44:30.874Z,17.99
2022-10-17T09:47:09.938Z,18.02
2022-10-17T09:49:40.412Z,18.05
2022-10-17T09:52:21.606Z,18.07
2022-10-17T09:54:58.372Z,18.10
2022-10-17T09:57:26.404Z,18.14
2022-10-17T10:00:05.360Z,18.19
2022-10-17T10:02:36.426Z,18.24
2022-10-17T10:05:21.763Z,18.28
2022-10-17T10:08:15.169Z,18.33
2022-10-17T10:10:44.252Z,18.39
2022-10-17T10:13:14.292Z,18.46
2022-10-17T10:15:45.346Z,18.51
2022-10-17T10:18:51.788Z,18.53
2022-10-17T10:21:27.475Z,18.63
2022-10-17T10:24:13.399Z,18.67
2022-10-17T10:26:47.038Z,18.71
2022-10-17T10:29:35.685Z,18.76
2022-10-17T10:32:26.305Z,18.78
2022-10-17T10:35:00.158Z,18.80
2022-10-17T10:37:34.037Z,18.84
2022-10-17T10:40:23.575Z,18.83
2022-10-17T10:43:05.357Z,18.87
2022-10-17T10:45:54.114Z,18.87
2022-10-17T10:48:25.138Z,18.90
2022-10-17T10:51:08.070Z,18.97
2022-10-17T10:54:05.471Z,19.02
2022-10-17T10:56:49.794Z,19.06
2022-10-17T11:00:09.142Z,19.13
2022-10-17T11:02:52.961Z,19.16
2022-10-17T11:06:25.601Z,19.21
2022-10-17T11:09:33.772Z,19.27
2022-10-17T11:12:15.304Z,19.31
2022-10-17T11:15:51.190Z,19.36
2022-10-17T11:18:38.457Z,19.44
2022-10-17T11:22:02.572Z,19.48
2022-10-17T11:24:41.006Z,19.56
2022-10-17T11:27:09.266Z,19.64
2022-10-17T11:29:41.391Z,19.71
2022-10-17T11:32:19.531Z,19.73
2022-10-17T11:34:53.759Z,19.78
2022-10-17T11:37:40.870Z,19.85
2022-10-17T11:40:36.050Z,19.90
2022-10-17T11:43:13.491Z,19.97
2022-10-17T11:45:51.553Z,20.01
2022-10-17T11:48:32.064Z,20.03
2022-10-17T11:54:17.753Z,20.15
2022-10-17T11:57:14.806Z,20.22
2022-10-17T12:00:36.798Z,20.26
2022-10-17T12:03:24.096Z,20.32
2022-10-17T12:06:38.503Z,20.36
2022-10-17T12:09:34.957Z,20.43
2022-10-17T12:12:05.186Z,20.47
2022-10-17T12:14:48.774Z,20.49
2022-10-17T12:17:40.768Z,20.53
2022-10-17T12:20:40.217Z,20.56
2022-10-17T12:23:13.565Z,20.57
2022-10-17T12:25:58.204Z,20.60
2022-10-17T12:28:44.309Z,20.64
2022-10-17T12:31:17.521Z,20.65
2022-10-17T12:34:03.934Z,20.67
2022-10-17T12:36:30.799Z,20.71
2022-10-17T12:39:03.898Z,20.72
2022-10-17T12:41:40.167Z,20.75
2022-10-17T12:44:13.474Z,20.76
2022-10-17T12:47:05.292Z,20.79
2022-10-17T12:49:47.265Z,20.82
2022-10-17T12:52:47.957Z,20.87
2022-10-17T12:55:23.935Z,20.94
2022-10-17T12:57:57.029Z,21.00
2022-10-17T13:00:59.606Z,21.05
2022-10-17T13:03:41.252Z,21.09
2022-10-17T13:06:20.636Z,21.11
2022-10-17T13:09:03.541Z,21.13
2022-10-17T13:11:36.226Z,21.15
2022-10-17T13:14:14.737Z,21.16
2022-10-17T13:16:57.513Z,21.20
2022-10-17T13:19:32.631Z,21.23
2022-10-17T13:22:06.885Z,21.26
2022-10-17T13:24:38.862Z,21.25
2022-10-17T13:27:23.407Z,21.27
2022-10-17T13:29:50.485Z,21.29
2022-10-17T13:32:17.915Z,21.29
2022-10-17T13:34:44.830Z,21.30
2022-10-17T13:37:15.783Z,21.33
2022-10-17T13:39:56.601Z,21.40
2022-10-17T13:42:37.186Z,21.45
2022-10-17T13:45:17.390Z,21.44
2022-10-17T13:47:44.885Z,21.42
2022-10-17T13:50:48.658Z,21.42
2022-10-17T13:53:35.618Z,21.45
2022-10-17T13:56:29.819Z,21.44
2022-10-17T13:59:03.577Z,21.42
2022-10-17T14:01:31.847Z,21.42
2022-10-17T14:04:20.103Z,21.41
2022-10-17T14:06:51.958Z,21.44
2022-10-17T14:09:31.089Z,21.48
2022-10-17T14:12:19.372Z,21.50
2022-10-17T14:15:10.412Z,21.51
2022-10-17T14:17:38.598Z,21.49
2022-10-17T14:20:40.676Z,21.48
2022-10-17T14:23:22.355Z,21.49
2022-10-17T14:25:44.590Z,21.52
2022-10-17T14:28:11.832Z,21.51
2022-10-17T14:31:01.430Z,21.52
2022-10-17T14:33:32.379Z,21.53
2022-10-17T14:36:02.530Z,21.52
2022-10-17T14:38:30.578Z,21.50
2022-10-17T14:41:37.742Z,21.48
2022-10-17T14:44:06.601Z,21.49
2022-10-17T14:46:36.705Z,21.47
2022-10-17T14:49:23.216Z,21.45
2022-10-17T14:52:15.124Z,21.43
2022-10-17T14:54:48.393Z,21.46
2022-10-17T14:57:23.564Z,21.48
2022-10-17T14:59:55.037Z,21.46
2022-10-17T15:02:28.647Z,21.41
2022-10-17T15:04:56.156Z,21.40
2022-10-17T15:07:24.161Z,21.36
2022-10-17T15:09:53.593Z,21.33
2022-10-17T15:12:24.994Z,21.31
2022-10-17T15:14:53.510Z,21.26
2022-10-17T15:17:27.389Z,21.26
2022-10-17T15:19:54.959Z,21.26
2022-10-17T15:22:22.952Z,21.22
2022-10-17T15:24:50.339Z,21.19
2022-10-17T15:27:26.512Z,21.17
2022-10-17T15:29:53.345Z,21.15
2022-10-17T15:32:20.443Z,21.11
2022-10-17T15:34:47.268Z,21.08
2022-10-17T15:37:24.081Z,21.03
2022-10-17T15:39:54.719Z,20.99
2022-10-17T15:42:30.366Z,20.94
2022-10-17T15:44:58.427Z,20.90
2022-10-17T15:47:31.301Z,20.86
2022-10-17T15:50:00.112Z,20.80
2022-10-17T15:52:28.058Z,20.77
2022-10-17T15:54:56.479Z,20.73
2022-10-17T15:57:33.817Z,20.72
2022-10-17T16:00:00.887Z,20.70
2022-10-17T16:02:28.084Z,20.65
2022-10-17T16:04:55.198Z,20.64
2022-10-17T16:07:22.484Z,20.62
2022-10-17T16:09:49.417Z,20.61
2022-10-17T16:12:25.114Z,20.57
2022-10-17T16:14:51.991Z,20.59
2022-10-17T16:17:19.170Z,20.61
2022-10-17T16:19:46.258Z,20.58
2022-10-17T16:22:32.289Z,20.57
2022-10-17T16:25:07.592Z,20.60
2022-10-17T16:27:36.279Z,20.57
2022-10-17T16:30:07.442Z,20.56
2022-10-17T16:32:34.525Z,20.52
2022-10-17T16:35:01.528Z,20.46
2022-10-17T16:37:28.681Z,20.44
2022-10-17T16:39:55.533Z,20.41
2022-10-17T16:42:22.765Z,20.39
2022-10-17T16:44:51.527Z,20.36
2022-10-17T16:47:19.651Z,20.33
2022-10-17T16:49:46.715Z,20.30
2022-10-17T16:52:14.137Z,20.26
2022-10-17T16:54:40.938Z,20.22
2022-10-17T16:57:08.216Z,20.19
2022-10-17T16:59:35.130Z,20.14
2022-10-17T17:02:02.207Z,20.14
2022-10-17T17:04:29.498Z,20.10
2022-10-17T17:06:56.897Z,20.09
2022-10-17T17:09:23.764Z,20.06
2022-10-17T17:11:50.775Z,20.05
2022-10-17T17:14:17.722Z,20.01
2022-10-17T17:16:44.827Z,20.02
2022-10-17T17:19:16.780Z,20.01
2022-10-17T17:21:50.039Z,19.98
2022-10-17T17:24:21.079Z,19.95
2022-10-17T17:26:55.128Z,19.90
2022-10-17T17:29:24.079Z,19.88
2022-10-17T17:31:51.949Z,19.83
2022-10-17T17:34:18.990Z,19.81
2022-10-17T17:36:46.207Z,19.78
2022-10-17T17:39:15.585Z,19.75
2022-10-17T17:41:44.413Z,19.69
2022-10-17T17:44:16.611Z,19.63
2022-10-17T17:46:44.980Z,19.59
2022-10-17T17:49:12.038Z,19.54
2022-10-17T17:51:41.548Z,19.50
2022-10-17T17:54:11.617Z,19.46
2022-10-17T17:56:39.653Z,19.46
2022-10-17T17:59:06.820Z,19.42
2022-10-17T18:01:38.688Z,19.38
2022-10-17T18:04:08.988Z,19.34
2022-10-17T18:06:38.786Z,19.33
2022-10-17T18:09:08.090Z,19.30
2022-10-17T18:11:37.027Z,19.26
2022-10-17T18:14:08.540Z,19.22
2022-10-17T18:16:37.392Z,19.17
2022-10-17T18:19:09.079Z,19.16
2022-10-17T18:21:37.340Z,19.15
2022-10-17T18:24:05.112Z,19.12
2022-10-17T18:26:32.769Z,19.10
2022-10-17T18:28:59.743Z,19.09
2022-10-17T18:31:35.683Z,19.07
2022-10-17T18:34:05.040Z,19.06
2022-10-17T18:36:34.562Z,19.02
2022-10-17T18:39:02.496Z,19.01
2022-10-17T18:41:29.537Z,18.98
2022-10-17T18:43:57.468Z,18.99
2022-10-17T18:46:29.851Z,18.95
2022-10-17T18:48:57.036Z,18.93
2022-10-17T18:51:26.459Z,18.91
2022-10-17T18:53:58.643Z,18.85
2022-10-17T18:56:26.901Z,18.80
2022-10-17T18:58:54.602Z,18.80
2022-10-17T19:01:25.530Z,18.75
2022-10-17T19:03:56.050Z,18.73
2022-10-17T19:06:28.363Z,18.73
2022-10-17T19:08:55.296Z,18.67
2022-10-17T19:11:26.441Z,18.64
2022-10-17T19:13:56.798Z,18.58
2022-10-17T19:16:29.579Z,18.56
2022-10-17T19:19:07.499Z,18.54
2022-10-17T19:21:35.214Z,18.47
2022-10-17T19:24:06.443Z,18.43
2022-10-17T19:26:36.894Z,18.44
2022-10-17T19:29:05.107Z,18.42
2022-10-17T19:31:34.473Z,18.41
2022-10-17T19:34:01.830Z,18.38
2022-10-17T19:36:33.350Z,18.37
2022-10-17T19:39:12.511Z,18.36
2022-10-17T19:41:44.601Z,18.35
2022-10-17T19:44:11.839Z,18.32
2022-10-17T19:46:39.331Z,18.31
2022-10-17T19:49:07.425Z,18.32
2022-10-17T19:51:35.118Z,18.26
2022-10-17T19:54:02.262Z,18.21
2022-10-17T19:56:33.217Z,18.18
2022-10-17T19:59:00.079Z,18.15
2022-10-17T20:01:32.635Z,18.12
2022-10-17T20:03:59.636Z,18.09
2022-10-17T20:06:27.044Z,18.06
2022-10-17T20:08:54.243Z,18.03
2022-10-17T20:11:28.458Z,17.99
2022-10-17T20:13:56.918Z,17.96
2022-10-17T20:16:28.676Z,17.89
2022-10-17T20:19:01.450Z,17.86
2022-10-17T20:21:35.054Z,17.82
2022-10-17T20:24:04.949Z,17.76
2022-10-17T20:26:38.244Z,17.71
2022-10-17T20:29:18.079Z,17.72
2022-10-17T20:31:47.300Z,17.69
2022-10-17T20:34:17.045Z,17.62
2022-10-17T20:36:44.670Z,17.56
2022-10-17T20:39:14.832Z,17.52
2022-10-17T20:41:43.720Z,17.46
2022-10-17T20:44:12.192Z,17.42
2022-10-17T20:46:45.241Z,17.41
2022-10-17T20:49:21.793Z,17.40
2022-10-17T20:51:49.014Z,17.38
2022-10-17T20:54:15.849Z,17.39
2022-10-17T20:56:42.867Z,17.40
2022-10-17T20:59:14.358Z,17.37
2022-10-17T21:01:42.831Z,17.36
2022-10-17T21:04:43.966Z,17.32
2022-10-17T21:06:57.585Z,17.29
2022-10-17T21:09:25.371Z,17.26
2022-10-17T21:11:55.167Z,17.25
2022-10-17T21:14:24.167Z,17.20
2022-10-17T21:16:52.323Z,17.19
2022-10-17T21:19:19.708Z,17.17
2022-10-17T21:21:47.113Z,17.17
2022-10-17T21:24:20.830Z,17.17
2022-10-17T21:26:55.227Z,17.17
2022-10-17T21:29:23.534Z,17.15
2022-10-17T21:31:51.375Z,17.12
2022-10-17T21:34:22.040Z,17.09
2022-10-17T21:36:49.238Z,17.08
2022-10-17T21:39:17.178Z,17.07
2022-10-17T21:41:45.250Z,17.04
2022-10-17T21:44:18.884Z,17.00
2022-10-17T21:46:47.788Z,16.94
2022-10-17T21:49:19.828Z,16.93
2022-10-17T21:51:48.317Z,16.87
2022-10-17T21:54:17.352Z,16.82
2022-10-17T21:56:45.376Z,16.81
2022-10-17T21:59:12.891Z,16.80
2022-10-17T22:01:43.964Z,16.80
2022-10-17T22:04:16.446Z,16.79
2022-10-17T22:06:46.280Z,16.72
2022-10-17T22:09:24.620Z,16.68
2022-10-17T22:11:56.469Z,16.68
2022-10-17T22:14:27.609Z,16.69
2022-10-17T22:16:55.517Z,16.63
2022-10-17T22:19:26.865Z,16.65
2022-10-17T22:21:54.680Z,16.64
2022-10-17T22:25:00.684Z,16.60
2022-10-17T22:27:27.711Z,16.59
2022-10-17T22:29:54.632Z,16.55
2022-10-17T22:32:22.608Z,16.48
2022-10-17T22:34:49.522Z,16.45
2022-10-17T22:37:16.462Z,16.47
2022-10-17T22:55:12.922Z,16.25
2022-10-17T22:57:40.768Z,16.23
2022-10-17T23:00:11.057Z,16.20
2022-10-17T23:02:39.052Z,16.17
2022-10-17T23:05:07.564Z,16.15
2022-10-17T23:07:34.958Z,16.19
2022-10-17T23:10:02.104Z,16.18
2022-10-17T23:12:29.520Z,16.11
2022-10-17T23:14:56.594Z,16.07
2022-10-17T23:17:23.554Z,16.05
2022-10-17T23:19:52.914Z,16.01
2022-10-17T23:22:22.534Z,15.96
2022-10-17T23:24:49.276Z,15.91
2022-10-17T23:27:17.510Z,15.88
2022-10-17T23:29:44.365Z,15.83
2022-10-17T23:32:11.329Z,15.86
2022-10-17T23:34:38.102Z,15.88
2022-10-17T23:37:05.170Z,15.86
2022-10-17T23:39:31.950Z,15.85
2022-10-17T23:41:58.953Z,15.81
2022-10-17T23:44:25.706Z,15.79
2022-10-17T23:46:52.761Z,15.80
2022-10-17T23:49:19.559Z,15.77
2022-10-17T23:51:46.549Z,15.75
2022-10-17T23:54:13.416Z,15.75
2022-10-17T23:56:40.426Z,15.76
2022-10-17T23:59:08.888Z,15.74
